sensor_id;sensor_type;location;lat;lon;timestamp;pressure;altitude;pressure_sealevel;temperature;humidity
14204;BME280;7185;51.854;6.622;2022-09-09T00:00:57;100528.88;;;16.20;100.00
14204;BME280;7185;51.854;6.622;2022-09-09T00:03:36;100525.56;;;16.15;100.00
14204;BME280;7185;51.854;6.622;2022-09-09T00:06:16;100531.50;;;16.00;100.00
14204;BME280;7185;51.854;6.622;2022-09-09T00:08:59;100534.50;;;16.13;100.00
14204;BME280;7185;51.854;6.622;2022-09-09T00:11:36;100528.88;;;16.20;100.00
14204;BME280;7185;51.854;6.622;2022-09-09T00:14:19;100525.69;;;16.12;100.00
14204;BME280;7185;51.854;6.622;2022-09-09T00:16:56;100526.38;;;16.17;100.00
14204;BME280;7185;51.854;6.622;2022-09-09T00:19:33;100529.41;;;16.08;100.00
14204;BME280;7185;51.854;6.622;2022-09-09T00:22:16;100516.97;;;16.10;100.00
14204;BME280;7185;51.854;6.622;2022-09-09T00:24:51;100528.06;;;15.98;100.00
14204;BME280;7185;51.854;6.622;2022-09-09T00:27:29;100526.97;;;15.81;100.00
14204;BME280;7185;51.854;6.622;2022-09-09T00:30:15;100524.16;;;15.86;100.00
14204;BME280;7185;51.854;6.622;2022-09-09T00:32:52;100523.41;;;15.82;100.00
14204;BME280;7185;51.854;6.622;2022-09-09T00:35:30;100518.22;;;15.79;100.00
14204;BME280;7185;51.854;6.622;2022-09-09T00:38:10;100515.66;;;15.77;100.00
14204;BME280;7185;51.854;6.622;2022-09-09T00:40:49;100512.47;;;15.69;100.00
14204;BME280;7185;51.854;6.622;2022-09-09T00:43:28;100507.75;;;15.76;100.00
14204;BME280;7185;51.854;6.622;2022-09-09T00:46:32;100509.88;;;15.68;100.00
14204;BME280;7185;51.854;6.622;2022-09-09T00:49:15;100517.59;;;15.72;100.00
14204;BME280;7185;51.854;6.622;2022-09-09T00:51:59;100518.47;;;15.73;100.00
14204;BME280;7185;51.854;6.622;2022-09-09T00:54:43;100516.88;;;15.69;100.00
14204;BME280;7185;51.854;6.622;2022-09-09T00:57:27;100506.69;;;15.59;100.00
14204;BME280;7185;51.854;6.622;2022-09-09T01:00:16;100516.19;;;15.64;100.00
14204;BME280;7185;51.854;6.622;2022-09-09T01:03:13;100519.34;;;15.51;100.00
14204;BME280;7185;51.854;6.622;2022-09-09T01:06:00;100521.91;;;15.53;100.00
14204;BME280;7185;51.854;6.622;2022-09-09T01:08:46;100521.19;;;15.49;100.00
14204;BME280;7185;51.854;6.622;2022-09-09T01:11:25;100523.25;;;15.41;100.00
14204;BME280;7185;51.854;6.622;2022-09-09T01:14:02;100522.50;;;15.39;100.00
14204;BME280;7185;51.854;6.622;2022-09-09T01:16:37;100523.00;;;15.47;100.00
14204;BME280;7185;51.854;6.622;2022-09-09T01:19:18;100513.56;;;15.41;100.00
14204;BME280;7185;51.854;6.622;2022-09-09T01:21:57;100522.91;;;15.50;100.00
14204;BME280;7185;51.854;6.622;2022-09-09T01:24:38;100520.44;;;15.45;100.00
14204;BME280;7185;51.854;6.622;2022-09-09T01:27:14;100522.66;;;15.56;100.00
14204;BME280;7185;51.854;6.622;2022-09-09T01:29:47;100515.78;;;15.52;100.00
14204;BME280;7185;51.854;6.622;2022-09-09T01:32:47;100516.78;;;15.50;100.00
14204;BME280;7185;51.854;6.622;2022-09-09T01:35:33;100512.44;;;15.47;100.00
14204;BME280;7185;51.854;6.622;2022-09-09T01:38:07;100509.94;;;15.44;100.00
14204;BME280;7185;51.854;6.622;2022-09-09T01:40:39;100510.75;;;15.46;100.00
14204;BME280;7185;51.854;6.622;2022-09-09T01:43:12;100505.81;;;15.37;100.00
14204;BME280;7185;51.854;6.622;2022-09-09T01:45:46;100502.88;;;15.44;100.00
14204;BME280;7185;51.854;6.622;2022-09-09T01:48:21;100507.38;;;15.42;100.00
14204;BME280;7185;51.854;6.622;2022-09-09T01:50:54;100508.66;;;15.32;100.00
14204;BME280;7185;51.854;6.622;2022-09-09T01:53:25;100505.16;;;15.32;100.00
14204;BME280;7185;51.854;6.622;2022-09-09T01:56:04;100506.06;;;15.30;100.00
14204;BME280;7185;51.854;6.622;2022-09-09T01:58:47;100504.09;;;15.36;100.00
14204;BME280;7185;51.854;6.622;2022-09-09T02:01:28;100513.88;;;15.34;100.00
14204;BME280;7185;51.854;6.622;2022-09-09T02:04:14;100513.13;;;15.30;100.00
14204;BME280;7185;51.854;6.622;2022-09-09T02:06:53;100507.91;;;15.28;100.00
14204;BME280;7185;51.854;6.622;2022-09-09T02:09:30;100504.47;;;15.26;100.00
14204;BME280;7185;51.854;6.622;2022-09-09T02:12:06;100513.53;;;15.19;100.00
14204;BME280;7185;51.854;6.622;2022-09-09T02:14:44;100515.50;;;15.14;100.00
14204;BME280;7185;51.854;6.622;2022-09-09T02:17:22;100516.50;;;15.11;100.00
14204;BME280;7185;51.854;6.622;2022-09-09T02:20:03;100515.25;;;15.20;100.00
14204;BME280;7185;51.854;6.622;2022-09-09T02:22:37;100513.78;;;15.13;100.00
14204;BME280;7185;51.854;6.622;2022-09-09T02:25:12;100521.09;;;15.06;100.00
14204;BME280;7185;51.854;6.622;2022-09-09T02:27:47;100515.00;;;15.04;100.00
14204;BME280;7185;51.854;6.622;2022-09-09T02:30:21;100516.50;;;15.11;100.00
14204;BME280;7185;51.854;6.622;2022-09-09T02:32:55;100514.16;;;15.04;100.00
14204;BME280;7185;51.854;6.622;2022-09-09T02:35:28;100517.47;;;15.09;100.00
14204;BME280;7185;51.854;6.622;2022-09-09T02:38:04;100518.28;;;15.11;100.00
14204;BME280;7185;51.854;6.622;2022-09-09T02:40:37;100522.41;;;15.18;100.00
14204;BME280;7185;51.854;6.622;2022-09-09T02:43:09;100523.38;;;15.16;100.00
14204;BME280;7185;51.854;6.622;2022-09-09T02:45:47;100522.94;;;15.04;100.00
14204;BME280;7185;51.854;6.622;2022-09-09T02:48:27;100516.72;;;15.05;100.00
14204;BME280;7185;51.854;6.622;2022-09-09T02:51:07;100516.66;;;15.07;100.00
14204;BME280;7185;51.854;6.622;2022-09-09T02:53:46;100509.47;;;15.10;100.00
14204;BME280;7185;51.854;6.622;2022-09-09T02:56:21;100516.38;;;15.14;100.00
14204;BME280;7185;51.854;6.622;2022-09-09T02:58:55;100511.84;;;15.18;100.00
14204;BME280;7185;51.854;6.622;2022-09-09T03:01:28;100510.16;;;15.16;100.00
14204;BME280;7185;51.854;6.622;2022-09-09T03:04:00;100506.66;;;15.15;100.00
14204;BME280;7185;51.854;6.622;2022-09-09T03:06:32;100499.81;;;15.11;100.00
14204;BME280;7185;51.854;6.622;2022-09-09T03:09:03;100500.75;;;15.08;100.00
14204;BME280;7185;51.854;6.622;2022-09-09T03:11:35;100503.84;;;15.20;100.00
14204;BME280;7185;51.854;6.622;2022-09-09T03:14:07;100512.06;;;15.12;100.00
14204;BME280;7185;51.854;6.622;2022-09-09T03:16:40;100508.50;;;15.13;100.00
14204;BME280;7185;51.854;6.622;2022-09-09T03:19:12;100506.75;;;15.13;100.00
14204;BME280;7185;51.854;6.622;2022-09-09T03:21:44;100508.50;;;15.13;100.00
14204;BME280;7185;51.854;6.622;2022-09-09T03:24:16;100513.03;;;15.09;100.00
14204;BME280;7185;51.854;6.622;2022-09-09T03:26:47;100514.91;;;15.07;100.00
14204;BME280;7185;51.854;6.622;2022-09-09T03:29:20;100512.06;;;15.12;100.00
14204;BME280;7185;51.854;6.622;2022-09-09T03:31:54;100516.31;;;15.16;100.00
14204;BME280;7185;51.854;6.622;2022-09-09T03:34:25;100508.63;;;15.10;100.00
14204;BME280;7185;51.854;6.622;2022-09-09T03:36:57;100506.66;;;15.15;100.00
14204;BME280;7185;51.854;6.622;2022-09-09T03:39:29;100511.22;;;15.11;100.00
14204;BME280;7185;51.854;6.622;2022-09-09T03:42:00;100505.09;;;15.11;100.00
14204;BME280;7185;51.854;6.622;2022-09-09T03:44:34;100506.91;;;15.09;100.00
14204;BME280;7185;51.854;6.622;2022-09-09T03:47:07;100506.09;;;15.07;100.00
14204;BME280;7185;51.854;6.622;2022-09-09T03:49:38;100508.41;;;15.16;100.00
14204;BME280;7185;51.854;6.622;2022-09-09T03:52:10;100506.75;;;15.13;100.00
14204;BME280;7185;51.854;6.622;2022-09-09T03:54:42;100511.94;;;15.15;100.00
14204;BME280;7185;51.854;6.622;2022-09-09T03:57:13;100508.63;;;15.10;100.00
14204;BME280;7185;51.854;6.622;2022-09-09T03:59:47;100508.25;;;15.19;100.00
14204;BME280;7185;51.854;6.622;2022-09-09T04:02:20;100507.34;;;15.20;100.00
14204;BME280;7185;51.854;6.622;2022-09-09T04:04:51;100508.91;;;15.26;100.00
14204;BME280;7185;51.854;6.622;2022-09-09T04:07:23;100508.03;;;15.25;100.00
14204;BME280;7185;51.854;6.622;2022-09-09T04:09:55;100505.44;;;15.24;100.00
14204;BME280;7185;51.854;6.622;2022-09-09T04:12:27;100506.19;;;15.27;100.00
14204;BME280;7185;51.854;6.622;2022-09-09T04:14:58;100500.88;;;15.29;100.00
14204;BME280;7185;51.854;6.622;2022-09-09T04:17:33;100501.53;;;15.34;100.00
14204;BME280;7185;51.854;6.622;2022-09-09T04:20:06;100499.75;;;15.35;100.00
14204;BME280;7185;51.854;6.622;2022-09-09T04:22:41;100503.84;;;15.42;100.00
14204;BME280;7185;51.854;6.622;2022-09-09T04:25:13;100497.84;;;15.38;100.00
14204;BME280;7185;51.854;6.622;2022-09-09T04:27:44;100496.84;;;15.41;100.00
14204;BME280;7185;51.854;6.622;2022-09-09T04:30:17;100489.47;;;15.49;100.00
14204;BME280;7185;51.854;6.622;2022-09-09T04:32:50;100500.97;;;15.48;100.00
14204;BME280;7185;51.854;6.622;2022-09-09T04:35:22;100497.59;;;15.44;100.00
14204;BME280;7185;51.854;6.622;2022-09-09T04:37:53;100496.31;;;15.55;100.00
14204;BME280;7185;51.854;6.622;2022-09-09T04:40:25;100496.38;;;15.53;100.00
14204;BME280;7185;51.854;6.622;2022-09-09T04:42:58;100487.66;;;15.51;100.00
14204;BME280;7185;51.854;6.622;2022-09-09T04:45:30;100485.81;;;15.53;100.00
14204;BME280;7185;51.854;6.622;2022-09-09T04:48:03;100489.97;;;15.59;100.00
14204;BME280;7185;51.854;6.622;2022-09-09T04:50:35;100489.97;;;15.59;100.00
14204;BME280;7185;51.854;6.622;2022-09-09T04:53:07;100498.81;;;15.58;100.00
14204;BME280;7185;51.854;6.622;2022-09-09T05:02:13;100497.59;;;15.67;100.00
14204;BME280;7185;51.854;6.622;2022-09-09T05:08:11;100494.69;;;15.73;100.00
14204;BME280;7185;51.854;6.622;2022-09-09T05:15:00;100492.63;;;15.80;100.00
14204;BME280;7185;51.854;6.622;2022-09-09T05:24:32;100492.44;;;15.86;100.00
14204;BME280;7185;51.854;6.622;2022-09-09T05:27:49;100485.91;;;15.95;100.00
14204;BME280;7185;51.854;6.622;2022-09-09T05:31:37;100484.97;;;15.96;100.00
14204;BME280;7185;51.854;6.622;2022-09-09T05:34:33;100486.47;;;16.01;100.00
14204;BME280;7185;51.854;6.622;2022-09-09T05:44:16;100494.22;;;16.06;100.00
14204;BME280;7185;51.854;6.622;2022-09-09T05:47:40;100487.47;;;15.99;100.00
14204;BME280;7185;51.854;6.622;2022-09-09T05:54:59;100485.22;;;16.31;100.00
14204;BME280;7185;51.854;6.622;2022-09-09T05:57:58;100490.25;;;16.37;100.00
14204;BME280;7185;51.854;6.622;2022-09-09T06:36:05;100508.16;;;17.10;100.00
14204;BME280;7185;51.854;6.622;2022-09-09T06:39:37;100502.06;;;17.08;100.00
14204;BME280;7185;51.854;6.622;2022-09-09T06:42:26;100503.00;;;17.26;100.00
14204;BME280;7185;51.854;6.622;2022-09-09T06:51:17;100515.38;;;17.25;100.00
14204;BME280;7185;51.854;6.622;2022-09-09T07:05:24;100511.31;;;17.55;100.00
14204;BME280;7185;51.854;6.622;2022-09-09T07:08:21;100513.06;;;17.73;100.00
14204;BME280;7185;51.854;6.622;2022-09-09T07:11:11;100511.38;;;17.72;100.00
14204;BME280;7185;51.854;6.622;2022-09-09T07:13:57;100509.97;;;17.82;100.00
14204;BME280;7185;51.854;6.622;2022-09-09T07:16:29;100505.34;;;17.86;100.00
14204;BME280;7185;51.854;6.622;2022-09-09T07:19:04;100501.69;;;17.89;100.00
14204;BME280;7185;51.854;6.622;2022-09-09T07:21:44;100506.81;;;18.11;100.00
14204;BME280;7185;51.854;6.622;2022-09-09T07:24:21;100510.47;;;18.26;100.00
14204;BME280;7185;51.854;6.622;2022-09-09T07:27:17;100508.97;;;18.38;100.00
14204;BME280;7185;51.854;6.622;2022-09-09T07:30:10;100502.16;;;18.50;100.00
14204;BME280;7185;51.854;6.622;2022-09-09T07:33:14;100505.75;;;18.31;100.00
14204;BME280;7185;51.854;6.622;2022-09-09T07:35:51;100513.00;;;18.45;100.00
14204;BME280;7185;51.854;6.622;2022-09-09T07:38:37;100514.16;;;18.57;100.00
14204;BME280;7185;51.854;6.622;2022-09-09T07:41:28;100514.72;;;18.79;100.00
14204;BME280;7185;51.854;6.622;2022-09-09T07:44:21;100520.53;;;18.70;100.00
14204;BME280;7185;51.854;6.622;2022-09-09T07:47:09;100517.91;;;18.53;100.00
14204;BME280;7185;51.854;6.622;2022-09-09T07:49:46;100527.16;;;18.28;100.00
14204;BME280;7185;51.854;6.622;2022-09-09T07:52:23;100519.53;;;18.22;100.00
14204;BME280;7185;51.854;6.622;2022-09-09T07:54:57;100522.25;;;18.38;100.00
14204;BME280;7185;51.854;6.622;2022-09-09T07:57:32;100528.16;;;18.76;100.00
14204;BME280;7185;51.854;6.622;2022-09-09T08:00:14;100519.50;;;18.73;100.00
14204;BME280;7185;51.854;6.622;2022-09-09T08:02:49;100522.97;;;18.91;100.00
14204;BME280;7185;51.854;6.622;2022-09-09T08:05:22;100529.25;;;18.72;100.00
14204;BME280;7185;51.854;6.622;2022-09-09T08:07:55;100529.44;;;18.69;100.00
14204;BME280;7185;51.854;6.622;2022-09-09T08:10:37;100531.78;;;18.58;100.00
14204;BME280;7185;51.854;6.622;2022-09-09T08:13:09;100533.84;;;18.53;100.00
14204;BME280;7185;51.854;6.622;2022-09-09T08:18:53;100537.53;;;18.84;100.00
14204;BME280;7185;51.854;6.622;2022-09-09T08:21:30;100530.28;;;19.35;100.00
14204;BME280;7185;51.854;6.622;2022-09-09T08:24:07;100532.41;;;19.77;100.00
14204;BME280;7185;51.854;6.622;2022-09-09T08:26:47;100534.09;;;20.24;100.00
14204;BME280;7185;51.854;6.622;2022-09-09T08:29:31;100532.41;;;20.37;100.00
14204;BME280;7185;51.854;6.622;2022-09-09T08:32:08;100531.13;;;20.14;100.00
14204;BME280;7185;51.854;6.622;2022-09-09T08:34:44;100525.53;;;20.19;100.00
14204;BME280;7185;51.854;6.622;2022-09-09T08:37:18;100536.53;;;20.13;100.00
14204;BME280;7185;51.854;6.622;2022-09-09T08:39:50;100539.25;;;20.42;100.00
14204;BME280;7185;51.854;6.622;2022-09-09T08:42:54;100533.31;;;20.22;100.00
14204;BME280;7185;51.854;6.622;2022-09-09T08:45:35;100533.09;;;19.64;100.00
14204;BME280;7185;51.854;6.622;2022-09-09T08:48:17;100541.81;;;19.98;100.00
14204;BME280;7185;51.854;6.622;2022-09-09T08:50:54;100535.78;;;20.11;100.00
14204;BME280;7185;51.854;6.622;2022-09-09T08:53:38;100544.28;;;20.32;100.00
14204;BME280;7185;51.854;6.622;2022-09-09T08:56:18;100542.00;;;19.95;100.00
14204;BME280;7185;51.854;6.622;2022-09-09T08:58:52;100541.13;;;19.95;100.00
14204;BME280;7185;51.854;6.622;2022-09-09T09:01:45;100540.97;;;20.43;100.00
14204;BME280;7185;51.854;6.622;2022-09-09T09:04:30;100535.25;;;20.49;100.00
14204;BME280;7185;51.854;6.622;2022-09-09T09:07:18;100532.06;;;21.01;100.00
14204;BME280;7185;51.854;6.622;2022-09-09T09:09:58;100528.59;;;21.28;100.00
14204;BME280;7185;51.854;6.622;2022-09-09T09:12:41;100532.28;;;21.40;100.00
14204;BME280;7185;51.854;6.622;2022-09-09T09:15:23;100533.47;;;21.49;100.00
14204;BME280;7185;51.854;6.622;2022-09-09T09:17:55;100531.16;;;22.25;100.00
14204;BME280;7185;51.854;6.622;2022-09-09T09:20:34;100542.38;;;21.77;100.00
14204;BME280;7185;51.854;6.622;2022-09-09T09:23:18;100538.38;;;21.42;100.00
14204;BME280;7185;51.854;6.622;2022-09-09T09:25:59;100547.63;;;21.37;100.00
14204;BME280;7185;51.854;6.622;2022-09-09T09:28:42;100548.41;;;20.66;100.00
14204;BME280;7185;51.854;6.622;2022-09-09T09:31:28;100548.03;;;20.13;100.00
14204;BME280;7185;51.854;6.622;2022-09-09T09:34:14;100538.84;;;20.19;100.00
14204;BME280;7185;51.854;6.622;2022-09-09T09:37:22;100544.47;;;20.29;100.00
14204;BME280;7185;51.854;6.622;2022-09-09T09:40:09;100540.00;;;20.29;100.00
14204;BME280;7185;51.854;6.622;2022-09-09T09:42:48;100549.72;;;20.45;100.00
14204;BME280;7185;51.854;6.622;2022-09-09T09:45:28;100552.19;;;20.48;100.00
14204;BME280;7185;51.854;6.622;2022-09-09T09:48:04;100540.22;;;20.55;100.00
14204;BME280;7185;51.854;6.622;2022-09-09T09:50:46;100544.41;;;20.45;100.00
14204;BME280;7185;51.854;6.622;2022-09-09T09:53:22;100543.53;;;20.44;100.00
14204;BME280;7185;51.854;6.622;2022-09-09T09:55:59;100537.41;;;20.73;100.00
14204;BME280;7185;51.854;6.622;2022-09-09T09:58:33;100532.84;;;20.89;100.00
14204;BME280;7185;51.854;6.622;2022-09-09T10:01:18;100542.28;;;21.37;100.00
14204;BME280;7185;51.854;6.622;2022-09-09T10:03:53;100538.03;;;21.47;100.00
14204;BME280;7185;51.854;6.622;2022-09-09T10:06:33;100542.72;;;21.43;100.00
14204;BME280;7185;51.854;6.622;2022-09-09T10:09:21;100533.13;;;20.99;100.00
14204;BME280;7185;51.854;6.622;2022-09-09T10:12:01;100544.06;;;20.80;100.00
14204;BME280;7185;51.854;6.622;2022-09-09T10:14:41;100553.00;;;20.79;100.00
14204;BME280;7185;51.854;6.622;2022-09-09T10:17:23;100542.75;;;20.73;100.00
14204;BME280;7185;51.854;6.622;2022-09-09T10:20:12;100533.03;;;20.86;100.00
14204;BME280;7185;51.854;6.622;2022-09-09T10:22:50;100541.13;;;20.84;100.00
14204;BME280;7185;51.854;6.622;2022-09-09T10:25:31;100527.56;;;21.02;100.00
14204;BME280;7185;51.854;6.622;2022-09-09T10:28:23;100527.09;;;21.24;100.00
14204;BME280;7185;51.854;6.622;2022-09-09T10:31:08;100529.53;;;21.27;100.00
14204;BME280;7185;51.854;6.622;2022-09-09T10:33:50;100527.31;;;20.92;100.00
14204;BME280;7185;51.854;6.622;2022-09-09T10:36:24;100534.97;;;21.26;100.00
14204;BME280;7185;51.854;6.622;2022-09-09T10:38:59;100535.22;;;21.36;100.00
14204;BME280;7185;51.854;6.622;2022-09-09T10:41:42;100520.94;;;21.37;100.00
14204;BME280;7185;51.854;6.622;2022-09-09T10:44:30;100527.66;;;21.15;100.00
14204;BME280;7185;51.854;6.622;2022-09-09T10:47:23;100522.19;;;20.75;100.00
14204;BME280;7185;51.854;6.622;2022-09-09T10:50:11;100524.19;;;20.85;100.00
14204;BME280;7185;51.854;6.622;2022-09-09T10:52:52;100527.41;;;20.76;100.00
14204;BME280;7185;51.854;6.622;2022-09-09T10:55:36;100534.22;;;20.51;100.00
14204;BME280;7185;51.854;6.622;2022-09-09T10:58:13;100540.41;;;20.52;100.00
14204;BME280;7185;51.854;6.622;2022-09-09T11:00:51;100530.38;;;20.27;100.00
14204;BME280;7185;51.854;6.622;2022-09-09T11:03:26;100531.22;;;20.27;100.00
14204;BME280;7185;51.854;6.622;2022-09-09T11:06:05;100531.13;;;20.14;100.00
14204;BME280;7185;51.854;6.622;2022-09-09T11:08:38;100528.00;;;20.22;100.00
14204;BME280;7185;51.854;6.622;2022-09-09T11:11:15;100538.41;;;19.96;100.00
14204;BME280;7185;51.854;6.622;2022-09-09T11:13:53;100542.63;;;20.15;100.00
14204;BME280;7185;51.854;6.622;2022-09-09T11:16:31;100533.44;;;20.20;100.00
14204;BME280;7185;51.854;6.622;2022-09-09T11:19:12;100542.16;;;20.08;100.00
14204;BME280;7185;51.854;6.622;2022-09-09T11:21:48;100532.75;;;19.70;100.00
14204;BME280;7185;51.854;6.622;2022-09-09T11:24:25;100537.22;;;19.86;100.00
14204;BME280;7185;51.854;6.622;2022-09-09T11:27:02;100537.31;;;20.15;100.00
14204;BME280;7185;51.854;6.622;2022-09-09T11:30:04;100527.34;;;20.33;100.00
14204;BME280;7185;51.854;6.622;2022-09-09T11:33:03;100532.03;;;20.44;100.00
14204;BME280;7185;51.854;6.622;2022-09-09T11:35:47;100520.66;;;20.85;100.00
14204;BME280;7185;51.854;6.622;2022-09-09T11:38:26;100522.53;;;20.83;100.00
14204;BME280;7185;51.854;6.622;2022-09-09T11:40:59;100522.81;;;20.35;100.00
14204;BME280;7185;51.854;6.622;2022-09-09T11:43:38;100519.38;;;20.47;100.00
14204;BME280;7185;51.854;6.622;2022-09-09T11:46:12;100523.66;;;20.64;100.00
14204;BME280;7185;51.854;6.622;2022-09-09T11:48:58;100520.63;;;20.56;100.00
14204;BME280;7185;51.854;6.622;2022-09-09T11:51:32;100523.56;;;20.22;100.00
14204;BME280;7185;51.854;6.622;2022-09-09T11:54:29;100518.19;;;20.08;100.00
14204;BME280;7185;51.854;6.622;2022-09-09T11:57:23;100518.03;;;20.26;100.00
14204;BME280;7185;51.854;6.622;2022-09-09T11:59:54;100523.41;;;20.10;100.00
14204;BME280;7185;51.854;6.622;2022-09-09T12:02:27;100514.44;;;19.96;100.00
14204;BME280;7185;51.854;6.622;2022-09-09T12:05:06;100514.88;;;20.19;100.00
14204;BME280;7185;51.854;6.622;2022-09-09T12:07:41;100530.47;;;20.11;100.00
14204;BME280;7185;51.854;6.622;2022-09-09T12:10:21;100541.63;;;20.01;100.00
14204;BME280;7185;51.854;6.622;2022-09-09T12:12:54;100533.56;;;19.56;100.00
14204;BME280;7185;51.854;6.622;2022-09-09T12:15:27;100544.41;;;20.00;100.00
14204;BME280;7185;51.854;6.622;2022-09-09T12:18:00;100531.28;;;19.81;100.00
14204;BME280;7185;51.854;6.622;2022-09-09T12:20:36;100547.75;;;20.03;100.00
14204;BME280;7185;51.854;6.622;2022-09-09T12:23:30;100544.19;;;20.03;100.00
14204;BME280;7185;51.854;6.622;2022-09-09T12:26:28;100546.59;;;20.08;100.00
14204;BME280;7185;51.854;6.622;2022-09-09T12:29:11;100549.81;;;19.82;100.00
14204;BME280;7185;51.854;6.622;2022-09-09T12:31:52;100544.28;;;19.55;100.00
14204;BME280;7185;51.854;6.622;2022-09-09T12:34:33;100552.44;;;18.86;100.00
14204;BME280;7185;51.854;6.622;2022-09-09T12:37:15;100552.81;;;18.78;100.00
14204;BME280;7185;51.854;6.622;2022-09-09T12:39:52;100556.78;;;18.54;100.00
14204;BME280;7185;51.854;6.622;2022-09-09T12:42:27;100546.81;;;18.24;100.00
14204;BME280;7185;51.854;6.622;2022-09-09T12:45:00;100549.00;;;18.33;100.00
14204;BME280;7185;51.854;6.622;2022-09-09T12:47:40;100545.34;;;18.53;100.00
14204;BME280;7185;51.854;6.622;2022-09-09T12:50:20;100535.28;;;18.42;100.00
14204;BME280;7185;51.854;6.622;2022-09-09T12:52:56;100536.38;;;18.21;100.00
14204;BME280;7185;51.854;6.622;2022-09-09T12:55:30;100543.06;;;18.45;100.00
14204;BME280;7185;51.854;6.622;2022-09-09T12:58:05;100547.91;;;18.37;100.00
14204;BME280;7185;51.854;6.622;2022-09-09T13:00:37;100541.34;;;18.09;100.00
14204;BME280;7185;51.854;6.622;2022-09-09T13:03:20;100539.03;;;18.21;100.00
14204;BME280;7185;51.854;6.622;2022-09-09T13:05:52;100542.28;;;18.08;100.00
14204;BME280;7185;51.854;6.622;2022-09-09T13:08:32;100539.94;;;18.02;100.00
14204;BME280;7185;51.854;6.622;2022-09-09T13:11:07;100539.25;;;18.34;100.00
14204;BME280;7185;51.854;6.622;2022-09-09T13:13:43;100535.97;;;18.28;100.00
14204;BME280;7185;51.854;6.622;2022-09-09T13:16:24;100537.78;;;18.61;100.00
14204;BME280;7185;51.854;6.622;2022-09-09T13:18:58;100530.38;;;18.68;100.00
14204;BME280;7185;51.854;6.622;2022-09-09T13:21:32;100525.84;;;18.70;100.00
14204;BME280;7185;51.854;6.622;2022-09-09T13:24:20;100520.41;;;19.53;100.00
14204;BME280;7185;51.854;6.622;2022-09-09T13:26:55;100512.84;;;20.96;100.00
14204;BME280;7185;51.854;6.622;2022-09-09T13:29:27;100502.00;;;22.86;100.00
14204;BME280;7185;51.854;6.622;2022-09-09T13:32:04;100501.19;;;23.83;100.00
14204;BME280;7185;51.854;6.622;2022-09-09T13:34:36;100498.88;;;23.78;100.00
14204;BME280;7185;51.854;6.622;2022-09-09T13:37:19;100499.75;;;23.30;100.00
14204;BME280;7185;51.854;6.622;2022-09-09T13:39:55;100508.19;;;22.87;100.00
14204;BME280;7185;51.854;6.622;2022-09-09T13:42:28;100494.63;;;22.77;100.00
14204;BME280;7185;51.854;6.622;2022-09-09T13:45:02;100483.53;;;23.20;100.00
14204;BME280;7185;51.854;6.622;2022-09-09T13:47:35;100490.47;;;23.47;100.00
14204;BME280;7185;51.854;6.622;2022-09-09T13:50:18;100491.06;;;22.89;100.00
14204;BME280;7185;51.854;6.622;2022-09-09T13:52:53;100493.75;;;22.25;100.00
14204;BME280;7185;51.854;6.622;2022-09-09T13:55:27;100500.22;;;21.55;100.00
14204;BME280;7185;51.854;6.622;2022-09-09T13:58:01;100500.25;;;20.98;100.00
14204;BME280;7185;51.854;6.622;2022-09-09T14:00:34;100501.06;;;20.86;100.00
14204;BME280;7185;51.854;6.622;2022-09-09T14:03:05;100499.72;;;21.62;100.00
14204;BME280;7185;51.854;6.622;2022-09-09T14:05:37;100488.94;;;22.17;100.00
14204;BME280;7185;51.854;6.622;2022-09-09T14:08:16;100484.78;;;23.15;100.00
14204;BME280;7185;51.854;6.622;2022-09-09T14:10:51;100487.28;;;23.42;100.00
14204;BME280;7185;51.854;6.622;2022-09-09T14:13:26;100483.41;;;23.22;100.00
14204;BME280;7185;51.854;6.622;2022-09-09T14:15:57;100485.69;;;23.02;100.00
14204;BME280;7185;51.854;6.622;2022-09-09T14:18:29;100480.16;;;22.92;100.00
14204;BME280;7185;51.854;6.622;2022-09-09T14:21:02;100495.91;;;21.67;100.00
14204;BME280;7185;51.854;6.622;2022-09-09T14:23:34;100489.38;;;21.98;100.00
14204;BME280;7185;51.854;6.622;2022-09-09T14:26:07;100492.00;;;21.30;100.00
14204;BME280;7185;51.854;6.622;2022-09-09T14:28:39;100494.16;;;21.11;100.00
14204;BME280;7185;51.854;6.622;2022-09-09T14:31:11;100491.78;;;21.06;100.00
14204;BME280;7185;51.854;6.622;2022-09-09T14:33:43;100491.06;;;20.90;100.00
14204;BME280;7185;51.854;6.622;2022-09-09T14:36:15;100494.00;;;20.85;100.00
14204;BME280;7185;51.854;6.622;2022-09-09T14:38:47;100475.84;;;20.77;100.00
14204;BME280;7185;51.854;6.622;2022-09-09T14:41:20;100479.72;;;21.00;100.00
14204;BME280;7185;51.854;6.622;2022-09-09T14:43:52;100482.38;;;20.72;100.00
14204;BME280;7185;51.854;6.622;2022-09-09T14:46:24;100474.75;;;21.09;100.00
14204;BME280;7185;51.854;6.622;2022-09-09T14:48:56;100475.16;;;21.30;100.00
14204;BME280;7185;51.854;6.622;2022-09-09T14:51:29;100462.69;;;21.30;100.00
14204;BME280;7185;51.854;6.622;2022-09-09T14:54:01;100465.16;;;21.61;80.81
14204;BME280;7185;51.854;6.622;2022-09-09T14:56:36;100466.38;;;21.42;84.12
14204;BME280;7185;51.854;6.622;2022-09-09T14:59:10;100474.03;;;21.47;79.63
14204;BME280;7185;51.854;6.622;2022-09-09T15:01:43;100470.97;;;21.26;81.90
14204;BME280;7185;51.854;6.622;2022-09-09T15:04:15;100457.63;;;20.98;78.35
14204;BME280;7185;51.854;6.622;2022-09-09T15:06:47;100469.09;;;21.28;80.38
14204;BME280;7185;51.854;6.622;2022-09-09T15:09:20;100469.66;;;21.18;76.47
14204;BME280;7185;51.854;6.622;2022-09-09T15:11:53;100470.56;;;21.32;79.27
14204;BME280;7185;51.854;6.622;2022-09-09T15:14:24;100460.56;;;21.36;77.91
14204;BME280;7185;51.854;6.622;2022-09-09T15:16:56;100465.50;;;21.42;76.57
14204;BME280;7185;51.854;6.622;2022-09-09T15:19:28;100459.19;;;21.15;75.94